KTOI/TOI METAR and TAF weather

Enter ICAO airport designator
Station Type Date Time Source
KTOI METAR 2022/12/04 11:53 UTC NOAA

KTOI 041153Z AUTO 00000KT 1/2SM FG VV003 16/14 A3024 RMK AO2 SLP237 70007 T01610144 10183 20161 53005


Station Type Date Time Source
KTOI Decoded METAR 2022/12/04 11:53 UTC NOAA

TROY MUNICIPAL AIRPORT, AL, United States (KTOI) 31-52N 086-01W 118M
Dec 04, 2022 - 06:53 AM EST / 2022.12.04 1153 UTC
Wind: Calm:0
Visibility: 1/2 mile(s):0
Sky conditions: obscured
Weather: fog
Temperature: 61.0 F (16.1 C)
Dew Point: 57.9 F (14.4 C)
Relative Humidity: 89%
Pressure (altimeter): 30.24 in. Hg (1024 hPa)
Pressure tendency: 0.01 inches (0.5 hPa) higher than three hours ago
ob: KTOI 041153Z AUTO 00000KT 1/2SM FG VV003 16/14 A3024 RMK AO2 SLP237 70007 T01610144 10183 20161 53005
cycle: 12

Station Type Date Time Source
KTOI TAF 2022/12/04 12:42 UTC NOAA

TAF KTOI 041139Z 0412/0512 00000KT 1/2SM FG VV002
FM041400 VRB04KT 2SM BR OVC003
FM041600 VRB03KT P6SM OVC008
FM041800 VRB04KT P6SM BKN014
FM042100 33005KT P6SM BKN035
FM050700 01001KT 5SM BR SCT025 OVC050

Example: see airport list